sensor_id;sensor_type;location;lat;lon;timestamp;temperature;humidity
41469;DHT22;27206;47.032;15.484;2023-04-25T00:01:46;9.20;1.00
41469;DHT22;27206;47.032;15.484;2023-04-25T00:04:11;9.20;1.00
41469;DHT22;27206;47.032;15.484;2023-04-25T00:06:37;9.30;1.00
41469;DHT22;27206;47.032;15.484;2023-04-25T00:09:06;9.20;1.00
41469;DHT22;27206;47.032;15.484;2023-04-25T00:11:36;9.10;1.00
41469;DHT22;27206;47.032;15.484;2023-04-25T00:14:03;9.10;1.00
41469;DHT22;27206;47.032;15.484;2023-04-25T00:16:29;9.10;1.00
41469;DHT22;27206;47.032;15.484;2023-04-25T00:18:58;9.20;1.00
41469;DHT22;27206;47.032;15.484;2023-04-25T00:21:24;9.10;1.00
41469;DHT22;27206;47.032;15.484;2023-04-25T00:23:50;9.20;1.00
41469;DHT22;27206;47.032;15.484;2023-04-25T00:26:15;9.10;1.00
41469;DHT22;27206;47.032;15.484;2023-04-25T00:28:41;9.20;1.00
41469;DHT22;27206;47.032;15.484;2023-04-25T00:31:06;9.20;1.00
41469;DHT22;27206;47.032;15.484;2023-04-25T00:33:32;9.10;1.00
41469;DHT22;27206;47.032;15.484;2023-04-25T00:35:58;9.20;1.00
41469;DHT22;27206;47.032;15.484;2023-04-25T00:38:23;9.10;1.00
41469;DHT22;27206;47.032;15.484;2023-04-25T00:40:49;9.10;1.00
41469;DHT22;27206;47.032;15.484;2023-04-25T00:43:15;9.10;1.00
41469;DHT22;27206;47.032;15.484;2023-04-25T00:45:41;9.20;1.00
41469;DHT22;27206;47.032;15.484;2023-04-25T00:48:08;9.00;1.00
41469;DHT22;27206;47.032;15.484;2023-04-25T00:50:34;9.00;1.00
41469;DHT22;27206;47.032;15.484;2023-04-25T00:53:00;9.00;1.00
41469;DHT22;27206;47.032;15.484;2023-04-25T00:55:26;9.00;1.00
41469;DHT22;27206;47.032;15.484;2023-04-25T00:57:52;8.90;1.00
41469;DHT22;27206;47.032;15.484;2023-04-25T01:00:18;9.00;1.00
41469;DHT22;27206;47.032;15.484;2023-04-25T01:02:45;9.00;1.00
41469;DHT22;27206;47.032;15.484;2023-04-25T01:05:11;8.90;1.00
41469;DHT22;27206;47.032;15.484;2023-04-25T01:07:38;8.90;1.00
41469;DHT22;27206;47.032;15.484;2023-04-25T01:10:04;8.80;1.00
41469;DHT22;27206;47.032;15.484;2023-04-25T01:12:31;8.60;1.00
41469;DHT22;27206;47.032;15.484;2023-04-25T01:14:57;8.70;1.00
41469;DHT22;27206;47.032;15.484;2023-04-25T01:17:23;8.70;1.00
41469;DHT22;27206;47.032;15.484;2023-04-25T01:19:49;8.60;1.00
41469;DHT22;27206;47.032;15.484;2023-04-25T01:22:16;8.60;1.00
41469;DHT22;27206;47.032;15.484;2023-04-25T01:24:42;8.60;1.00
41469;DHT22;27206;47.032;15.484;2023-04-25T01:27:08;8.40;1.00
41469;DHT22;27206;47.032;15.484;2023-04-25T01:29:35;8.40;1.00
41469;DHT22;27206;47.032;15.484;2023-04-25T01:32:01;8.40;1.00
41469;DHT22;27206;47.032;15.484;2023-04-25T01:34:27;8.10;1.00
41469;DHT22;27206;47.032;15.484;2023-04-25T01:36:53;8.10;1.00
41469;DHT22;27206;47.032;15.484;2023-04-25T01:39:19;8.20;1.00
41469;DHT22;27206;47.032;15.484;2023-04-25T01:41:48;8.20;1.00
41469;DHT22;27206;47.032;15.484;2023-04-25T01:44:15;8.10;1.00
41469;DHT22;27206;47.032;15.484;2023-04-25T01:46:41;8.10;1.00
41469;DHT22;27206;47.032;15.484;2023-04-25T01:49:08;8.10;1.00
41469;DHT22;27206;47.032;15.484;2023-04-25T01:51:34;8.00;1.00
41469;DHT22;27206;47.032;15.484;2023-04-25T01:54:01;7.90;1.00
41469;DHT22;27206;47.032;15.484;2023-04-25T01:56:31;7.80;1.00
41469;DHT22;27206;47.032;15.484;2023-04-25T01:58:57;7.90;1.00
41469;DHT22;27206;47.032;15.484;2023-04-25T02:01:23;7.90;1.00
41469;DHT22;27206;47.032;15.484;2023-04-25T02:03:49;7.90;1.00
41469;DHT22;27206;47.032;15.484;2023-04-25T02:06:14;7.80;1.00
41469;DHT22;27206;47.032;15.484;2023-04-25T02:08:40;7.80;1.00
41469;DHT22;27206;47.032;15.484;2023-04-25T02:11:06;7.60;1.00
41469;DHT22;27206;47.032;15.484;2023-04-25T02:13:31;7.50;1.00
41469;DHT22;27206;47.032;15.484;2023-04-25T02:15:57;7.50;1.00
41469;DHT22;27206;47.032;15.484;2023-04-25T02:18:23;7.50;1.00
41469;DHT22;27206;47.032;15.484;2023-04-25T02:20:49;7.50;1.00
41469;DHT22;27206;47.032;15.484;2023-04-25T02:23:14;7.50;1.00
41469;DHT22;27206;47.032;15.484;2023-04-25T02:25:44;7.40;1.00
41469;DHT22;27206;47.032;15.484;2023-04-25T02:28:10;7.40;1.00
41469;DHT22;27206;47.032;15.484;2023-04-25T02:30:37;7.30;1.00
41469;DHT22;27206;47.032;15.484;2023-04-25T02:33:03;7.30;1.00
41469;DHT22;27206;47.032;15.484;2023-04-25T02:35:28;7.30;1.00
41469;DHT22;27206;47.032;15.484;2023-04-25T02:37:54;7.20;1.00
41469;DHT22;27206;47.032;15.484;2023-04-25T02:40:20;7.10;1.00
41469;DHT22;27206;47.032;15.484;2023-04-25T02:42:45;7.00;1.00
41469;DHT22;27206;47.032;15.484;2023-04-25T02:45:11;7.00;1.00
41469;DHT22;27206;47.032;15.484;2023-04-25T02:47:37;6.90;1.00
41469;DHT22;27206;47.032;15.484;2023-04-25T02:50:03;6.90;1.00
41469;DHT22;27206;47.032;15.484;2023-04-25T02:52:29;6.70;1.00
41469;DHT22;27206;47.032;15.484;2023-04-25T02:54:55;6.60;1.00
41469;DHT22;27206;47.032;15.484;2023-04-25T02:57:20;6.60;1.00
41469;DHT22;27206;47.032;15.484;2023-04-25T02:59:46;6.60;1.00
41469;DHT22;27206;47.032;15.484;2023-04-25T03:02:12;6.50;1.00
41469;DHT22;27206;47.032;15.484;2023-04-25T03:04:37;6.50;1.00
41469;DHT22;27206;47.032;15.484;2023-04-25T03:07:03;6.50;1.00
41469;DHT22;27206;47.032;15.484;2023-04-25T03:09:29;6.60;1.00
41469;DHT22;27206;47.032;15.484;2023-04-25T03:11:54;6.60;1.00
41469;DHT22;27206;47.032;15.484;2023-04-25T03:14:20;6.70;1.00
41469;DHT22;27206;47.032;15.484;2023-04-25T03:16:45;6.80;1.00
41469;DHT22;27206;47.032;15.484;2023-04-25T03:19:11;6.90;1.00
41469;DHT22;27206;47.032;15.484;2023-04-25T03:21:37;7.00;1.00
41469;DHT22;27206;47.032;15.484;2023-04-25T03:24:04;7.00;1.00
41469;DHT22;27206;47.032;15.484;2023-04-25T03:26:30;7.00;1.00
41469;DHT22;27206;47.032;15.484;2023-04-25T03:28:55;6.90;1.00
41469;DHT22;27206;47.032;15.484;2023-04-25T03:31:21;7.00;1.00
41469;DHT22;27206;47.032;15.484;2023-04-25T03:33:47;7.10;1.00
41469;DHT22;27206;47.032;15.484;2023-04-25T03:36:13;7.10;5.90
41469;DHT22;27206;47.032;15.484;2023-04-25T03:38:39;7.10;11.60
41469;DHT22;27206;47.032;15.484;2023-04-25T03:41:06;7.10;16.50
41469;DHT22;27206;47.032;15.484;2023-04-25T03:43:32;7.10;24.50
41469;DHT22;27206;47.032;15.484;2023-04-25T03:45:58;7.20;31.90
41469;DHT22;27206;47.032;15.484;2023-04-25T03:48:23;7.20;35.30
41469;DHT22;27206;47.032;15.484;2023-04-25T03:50:51;7.10;34.60
41469;DHT22;27206;47.032;15.484;2023-04-25T03:53:17;7.10;33.90
41469;DHT22;27206;47.032;15.484;2023-04-25T03:55:42;7.10;29.30
41469;DHT22;27206;47.032;15.484;2023-04-25T03:58:08;7.10;29.70
41469;DHT22;27206;47.032;15.484;2023-04-25T04:00:34;7.10;26.70
41469;DHT22;27206;47.032;15.484;2023-04-25T04:03:00;7.20;28.00
41469;DHT22;27206;47.032;15.484;2023-04-25T04:05:26;7.10;25.40
41469;DHT22;27206;47.032;15.484;2023-04-25T04:07:52;7.20;28.90
41469;DHT22;27206;47.032;15.484;2023-04-25T04:10:18;7.10;28.30
41469;DHT22;27206;47.032;15.484;2023-04-25T04:12:44;7.10;32.60
41469;DHT22;27206;47.032;15.484;2023-04-25T04:15:10;6.90;28.70
41469;DHT22;27206;47.032;15.484;2023-04-25T04:17:36;7.00;37.50
41469;DHT22;27206;47.032;15.484;2023-04-25T04:20:01;7.00;37.60
41469;DHT22;27206;47.032;15.484;2023-04-25T04:22:29;7.00;38.20
41469;DHT22;27206;47.032;15.484;2023-04-25T04:24:54;7.00;43.90
41469;DHT22;27206;47.032;15.484;2023-04-25T04:27:22;7.00;44.70
41469;DHT22;27206;47.032;15.484;2023-04-25T04:29:48;6.90;44.90
41469;DHT22;27206;47.032;15.484;2023-04-25T04:32:15;7.00;48.30
41469;DHT22;27206;47.032;15.484;2023-04-25T04:34:41;7.00;44.70
41469;DHT22;27206;47.032;15.484;2023-04-25T04:37:07;6.90;43.80
41469;DHT22;27206;47.032;15.484;2023-04-25T04:39:36;7.00;47.10
41469;DHT22;27206;47.032;15.484;2023-04-25T04:42:02;7.00;46.30
41469;DHT22;27206;47.032;15.484;2023-04-25T04:44:29;6.80;40.50
41469;DHT22;27206;47.032;15.484;2023-04-25T04:46:58;6.80;38.00
41469;DHT22;27206;47.032;15.484;2023-04-25T04:49:23;6.80;38.10
41469;DHT22;27206;47.032;15.484;2023-04-25T04:51:49;7.00;40.00
41469;DHT22;27206;47.032;15.484;2023-04-25T04:54:15;6.90;28.60
41469;DHT22;27206;47.032;15.484;2023-04-25T04:56:40;6.80;18.70
41469;DHT22;27206;47.032;15.484;2023-04-25T04:59:07;6.80;18.60
41469;DHT22;27206;47.032;15.484;2023-04-25T05:01:32;6.80;14.10
41469;DHT22;27206;47.032;15.484;2023-04-25T05:04:00;6.70;8.60
41469;DHT22;27206;47.032;15.484;2023-04-25T05:06:29;6.90;16.70
41469;DHT22;27206;47.032;15.484;2023-04-25T05:08:56;6.90;16.70
41469;DHT22;27206;47.032;15.484;2023-04-25T05:11:22;6.80;6.10
41469;DHT22;27206;47.032;15.484;2023-04-25T05:13:50;6.90;6.30
41469;DHT22;27206;47.032;15.484;2023-04-25T05:16:16;6.90;2.10
41469;DHT22;27206;47.032;15.484;2023-04-25T05:18:42;7.00;2.50
41469;DHT22;27206;47.032;15.484;2023-04-25T05:21:07;7.10;3.70
41469;DHT22;27206;47.032;15.484;2023-04-25T05:23:33;7.20;1.40
41469;DHT22;27206;47.032;15.484;2023-04-25T05:25:59;7.30;3.30
41469;DHT22;27206;47.032;15.484;2023-04-25T05:28:25;7.30;1.00
41469;DHT22;27206;47.032;15.484;2023-04-25T05:30:50;7.20;1.00
41469;DHT22;27206;47.032;15.484;2023-04-25T05:33:16;7.10;1.00
41469;DHT22;27206;47.032;15.484;2023-04-25T05:35:42;7.20;1.00
41469;DHT22;27206;47.032;15.484;2023-04-25T05:38:08;7.40;1.00
41469;DHT22;27206;47.032;15.484;2023-04-25T05:40:34;7.30;1.00
41469;DHT22;27206;47.032;15.484;2023-04-25T05:43:00;7.40;1.00
41469;DHT22;27206;47.032;15.484;2023-04-25T05:45:25;7.50;1.00
41469;DHT22;27206;47.032;15.484;2023-04-25T05:47:51;7.60;1.00
41469;DHT22;27206;47.032;15.484;2023-04-25T05:50:17;7.40;1.00
41469;DHT22;27206;47.032;15.484;2023-04-25T05:52:42;7.50;1.00
41469;DHT22;27206;47.032;15.484;2023-04-25T05:55:08;7.60;1.00
41469;DHT22;27206;47.032;15.484;2023-04-25T05:57:34;7.60;1.00
41469;DHT22;27206;47.032;15.484;2023-04-25T06:00:00;7.70;1.00
41469;DHT22;27206;47.032;15.484;2023-04-25T06:02:26;7.90;1.00
41469;DHT22;27206;47.032;15.484;2023-04-25T06:04:52;7.80;1.00
41469;DHT22;27206;47.032;15.484;2023-04-25T06:07:19;8.00;1.00
41469;DHT22;27206;47.032;15.484;2023-04-25T06:09:45;7.80;1.00
41469;DHT22;27206;47.032;15.484;2023-04-25T06:12:10;7.80;1.00
41469;DHT22;27206;47.032;15.484;2023-04-25T06:14:36;7.60;1.00
41469;DHT22;27206;47.032;15.484;2023-04-25T06:17:03;7.60;1.00
41469;DHT22;27206;47.032;15.484;2023-04-25T06:19:34;7.60;1.00
41469;DHT22;27206;47.032;15.484;2023-04-25T06:21:59;7.60;1.00
41469;DHT22;27206;47.032;15.484;2023-04-25T06:24:25;7.70;1.00
41469;DHT22;27206;47.032;15.484;2023-04-25T06:26:51;7.80;1.00
41469;DHT22;27206;47.032;15.484;2023-04-25T06:29:18;7.90;1.00
41469;DHT22;27206;47.032;15.484;2023-04-25T06:31:43;8.00;1.00
41469;DHT22;27206;47.032;15.484;2023-04-25T06:34:09;8.00;1.00
41469;DHT22;27206;47.032;15.484;2023-04-25T06:36:35;8.00;1.00
41469;DHT22;27206;47.032;15.484;2023-04-25T06:39:00;8.00;1.00
41469;DHT22;27206;47.032;15.484;2023-04-25T06:41:26;8.10;1.00
41469;DHT22;27206;47.032;15.484;2023-04-25T06:43:52;8.10;1.00
41469;DHT22;27206;47.032;15.484;2023-04-25T06:46:18;8.10;1.00
41469;DHT22;27206;47.032;15.484;2023-04-25T06:48:43;8.10;1.00
41469;DHT22;27206;47.032;15.484;2023-04-25T06:51:09;8.20;1.00
41469;DHT22;27206;47.032;15.484;2023-04-25T06:53:34;8.30;1.00
41469;DHT22;27206;47.032;15.484;2023-04-25T06:56:00;8.40;1.00
41469;DHT22;27206;47.032;15.484;2023-04-25T06:58:28;8.40;1.00
41469;DHT22;27206;47.032;15.484;2023-04-25T07:00:54;8.50;1.00
41469;DHT22;27206;47.032;15.484;2023-04-25T07:03:20;8.60;1.00
41469;DHT22;27206;47.032;15.484;2023-04-25T07:05:46;8.70;1.00
41469;DHT22;27206;47.032;15.484;2023-04-25T07:08:11;8.70;1.00
41469;DHT22;27206;47.032;15.484;2023-04-25T07:10:37;8.80;1.00
41469;DHT22;27206;47.032;15.484;2023-04-25T07:13:03;8.90;1.00
41469;DHT22;27206;47.032;15.484;2023-04-25T07:15:29;9.00;1.00
41469;DHT22;27206;47.032;15.484;2023-04-25T07:17:54;9.10;1.00
41469;DHT22;27206;47.032;15.484;2023-04-25T07:20:20;9.20;1.00
41469;DHT22;27206;47.032;15.484;2023-04-25T07:22:46;9.30;1.00
41469;DHT22;27206;47.032;15.484;2023-04-25T07:25:12;9.50;1.00
41469;DHT22;27206;47.032;15.484;2023-04-25T07:27:37;9.60;99.90
41469;DHT22;27206;47.032;15.484;2023-04-25T07:30:03;9.70;99.90
41469;DHT22;27206;47.032;15.484;2023-04-25T07:32:29;9.90;99.90
41469;DHT22;27206;47.032;15.484;2023-04-25T07:34:55;10.00;99.90
41469;DHT22;27206;47.032;15.484;2023-04-25T07:37:21;10.10;99.90
41469;DHT22;27206;47.032;15.484;2023-04-25T07:39:47;10.20;99.90
41469;DHT22;27206;47.032;15.484;2023-04-25T07:42:13;10.40;99.90
41469;DHT22;27206;47.032;15.484;2023-04-25T07:44:38;10.60;99.90
41469;DHT22;27206;47.032;15.484;2023-04-25T07:47:09;10.90;99.90
41469;DHT22;27206;47.032;15.484;2023-04-25T07:49:35;11.10;99.90
41469;DHT22;27206;47.032;15.484;2023-04-25T07:52:02;11.40;99.90
41469;DHT22;27206;47.032;15.484;2023-04-25T07:54:28;11.50;99.90
41469;DHT22;27206;47.032;15.484;2023-04-25T07:56:54;11.60;99.90
41469;DHT22;27206;47.032;15.484;2023-04-25T07:59:20;11.70;99.90
41469;DHT22;27206;47.032;15.484;2023-04-25T08:01:45;11.80;99.90
41469;DHT22;27206;47.032;15.484;2023-04-25T08:04:11;12.00;99.90
41469;DHT22;27206;47.032;15.484;2023-04-25T08:06:37;12.20;99.90
41469;DHT22;27206;47.032;15.484;2023-04-25T08:09:02;12.40;99.90
41469;DHT22;27206;47.032;15.484;2023-04-25T08:11:28;12.60;99.90
41469;DHT22;27206;47.032;15.484;2023-04-25T08:13:54;12.90;99.90
41469;DHT22;27206;47.032;15.484;2023-04-25T08:16:20;13.30;99.90
41469;DHT22;27206;47.032;15.484;2023-04-25T08:18:45;13.20;99.90
41469;DHT22;27206;47.032;15.484;2023-04-25T08:21:11;13.20;99.90
41469;DHT22;27206;47.032;15.484;2023-04-25T08:23:38;13.50;99.90
41469;DHT22;27206;47.032;15.484;2023-04-25T08:26:03;14.00;99.90
41469;DHT22;27206;47.032;15.484;2023-04-25T08:28:30;14.10;99.90
41469;DHT22;27206;47.032;15.484;2023-04-25T08:30:56;14.20;99.90
41469;DHT22;27206;47.032;15.484;2023-04-25T08:33:21;14.20;99.90
41469;DHT22;27206;47.032;15.484;2023-04-25T08:35:47;14.20;99.90
41469;DHT22;27206;47.032;15.484;2023-04-25T08:38:13;14.10;99.90
41469;DHT22;27206;47.032;15.484;2023-04-25T08:40:39;14.40;99.90
41469;DHT22;27206;47.032;15.484;2023-04-25T08:43:07;14.30;99.90
41469;DHT22;27206;47.032;15.484;2023-04-25T08:45:40;14.30;99.90
41469;DHT22;27206;47.032;15.484;2023-04-25T08:48:13;14.50;99.90
41469;DHT22;27206;47.032;15.484;2023-04-25T08:50:49;14.40;99.90
41469;DHT22;27206;47.032;15.484;2023-04-25T08:53:17;14.50;99.90
41469;DHT22;27206;47.032;15.484;2023-04-25T08:55:46;14.50;99.90
41469;DHT22;27206;47.032;15.484;2023-04-25T08:58:13;14.50;99.90
41469;DHT22;27206;47.032;15.484;2023-04-25T09:00:39;14.60;99.90
41469;DHT22;27206;47.032;15.484;2023-04-25T09:03:04;14.70;99.90
41469;DHT22;27206;47.032;15.484;2023-04-25T09:05:31;14.60;99.90
41469;DHT22;27206;47.032;15.484;2023-04-25T09:07:57;14.90;99.90
41469;DHT22;27206;47.032;15.484;2023-04-25T09:10:23;15.00;99.90
41469;DHT22;27206;47.032;15.484;2023-04-25T09:13:06;15.20;99.90
41469;DHT22;27206;47.032;15.484;2023-04-25T09:15:32;15.20;99.90
41469;DHT22;27206;47.032;15.484;2023-04-25T09:17:59;15.10;99.90
41469;DHT22;27206;47.032;15.484;2023-04-25T09:20:25;14.80;99.90
41469;DHT22;27206;47.032;15.484;2023-04-25T09:23:04;14.80;99.90
41469;DHT22;27206;47.032;15.484;2023-04-25T09:25:35;14.80;99.90
41469;DHT22;27206;47.032;15.484;2023-04-25T09:28:04;14.80;99.90
41469;DHT22;27206;47.032;15.484;2023-04-25T09:30:35;15.10;99.90
41469;DHT22;27206;47.032;15.484;2023-04-25T09:33:10;15.20;99.90
41469;DHT22;27206;47.032;15.484;2023-04-25T09:35:42;15.40;99.90
41469;DHT22;27206;47.032;15.484;2023-04-25T09:40:34;15.80;99.90
41469;DHT22;27206;47.032;15.484;2023-04-25T09:43:09;15.90;99.90
41469;DHT22;27206;47.032;15.484;2023-04-25T09:45:41;15.80;99.90
41469;DHT22;27206;47.032;15.484;2023-04-25T09:48:20;15.80;99.90
41469;DHT22;27206;47.032;15.484;2023-04-25T09:53:29;15.80;99.90
41469;DHT22;27206;47.032;15.484;2023-04-25T09:55:56;16.00;99.90
41469;DHT22;27206;47.032;15.484;2023-04-25T09:58:24;16.40;99.90
41469;DHT22;27206;47.032;15.484;2023-04-25T10:00:51;16.40;99.90
41469;DHT22;27206;47.032;15.484;2023-04-25T10:03:17;16.60;99.90
41469;DHT22;27206;47.032;15.484;2023-04-25T10:05:47;17.10;99.90
41469;DHT22;27206;47.032;15.484;2023-04-25T10:08:13;17.10;99.90
41469;DHT22;27206;47.032;15.484;2023-04-25T10:10:40;17.40;99.90
41469;DHT22;27206;47.032;15.484;2023-04-25T10:13:06;17.10;99.90
41469;DHT22;27206;47.032;15.484;2023-04-25T10:15:35;17.10;99.90
41469;DHT22;27206;47.032;15.484;2023-04-25T10:18:02;17.00;99.90
41469;DHT22;27206;47.032;15.484;2023-04-25T10:20:28;17.20;99.90
41469;DHT22;27206;47.032;15.484;2023-04-25T10:22:57;17.10;99.90
41469;DHT22;27206;47.032;15.484;2023-04-25T10:25:24;17.20;99.90
41469;DHT22;27206;47.032;15.484;2023-04-25T10:27:53;17.20;99.90
41469;DHT22;27206;47.032;15.484;2023-04-25T10:30:19;17.40;99.90
41469;DHT22;27206;47.032;15.484;2023-04-25T10:32:45;17.70;99.90
41469;DHT22;27206;47.032;15.484;2023-04-25T10:35:14;17.80;99.90
41469;DHT22;27206;47.032;15.484;2023-04-25T10:38:08;18.10;99.90
41469;DHT22;27206;47.032;15.484;2023-04-25T10:40:34;18.10;99.90
41469;DHT22;27206;47.032;15.484;2023-04-25T10:45:57;18.30;99.90
41469;DHT22;27206;47.032;15.484;2023-04-25T10:48:31;18.20;99.90
41469;DHT22;27206;47.032;15.484;2023-04-25T10:51:10;18.20;99.90
41469;DHT22;27206;47.032;15.484;2023-04-25T10:53:36;18.10;99.90
41469;DHT22;27206;47.032;15.484;2023-04-25T10:56:16;18.20;99.90
41469;DHT22;27206;47.032;15.484;2023-04-25T10:58:43;18.30;99.90
41469;DHT22;27206;47.032;15.484;2023-04-25T11:01:09;18.50;99.90
41469;DHT22;27206;47.032;15.484;2023-04-25T11:03:42;18.70;99.90
41469;DHT22;27206;47.032;15.484;2023-04-25T11:09:03;18.50;99.90
41469;DHT22;27206;47.032;15.484;2023-04-25T11:11:36;18.50;99.90
41469;DHT22;27206;47.032;15.484;2023-04-25T11:14:02;19.00;99.90
41469;DHT22;27206;47.032;15.484;2023-04-25T11:16:28;19.00;99.90
41469;DHT22;27206;47.032;15.484;2023-04-25T11:18:56;18.80;99.90
41469;DHT22;27206;47.032;15.484;2023-04-25T11:21:22;18.70;99.90
41469;DHT22;27206;47.032;15.484;2023-04-25T11:23:48;18.30;99.90
41469;DHT22;27206;47.032;15.484;2023-04-25T11:26:13;18.30;99.90
41469;DHT22;27206;47.032;15.484;2023-04-25T11:28:40;18.40;99.90
41469;DHT22;27206;47.032;15.484;2023-04-25T11:31:06;18.60;99.90
41469;DHT22;27206;47.032;15.484;2023-04-25T11:33:32;18.70;99.90
41469;DHT22;27206;47.032;15.484;2023-04-25T11:35:58;18.30;99.90
41469;DHT22;27206;47.032;15.484;2023-04-25T11:38:24;17.80;99.90
41469;DHT22;27206;47.032;15.484;2023-04-25T11:40:53;17.50;99.90
41469;DHT22;27206;47.032;15.484;2023-04-25T11:43:25;17.30;99.90
41469;DHT22;27206;47.032;15.484;2023-04-25T11:45:51;17.00;99.90
41469;DHT22;27206;47.032;15.484;2023-04-25T11:48:18;16.90;99.90
41469;DHT22;27206;47.032;15.484;2023-04-25T11:50:44;16.60;99.90
41469;DHT22;27206;47.032;15.484;2023-04-25T11:53:10;16.00;99.90
41469;DHT22;27206;47.032;15.484;2023-04-25T11:55:36;15.30;99.90
41469;DHT22;27206;47.032;15.484;2023-04-25T11:58:04;15.20;99.90
41469;DHT22;27206;47.032;15.484;2023-04-25T12:00:30;15.30;99.90
41469;DHT22;27206;47.032;15.484;2023-04-25T12:02:57;15.40;99.90
41469;DHT22;27206;47.032;15.484;2023-04-25T12:05:31;15.50;99.90
41469;DHT22;27206;47.032;15.484;2023-04-25T12:08:09;15.10;99.90
41469;DHT22;27206;47.032;15.484;2023-04-25T12:10:38;15.10;99.90
41469;DHT22;27206;47.032;15.484;2023-04-25T12:13:19;15.00;99.90
41469;DHT22;27206;47.032;15.484;2023-04-25T12:15:45;14.70;99.90
41469;DHT22;27206;47.032;15.484;2023-04-25T12:18:11;14.80;99.90
41469;DHT22;27206;47.032;15.484;2023-04-25T12:20:36;14.60;99.90
41469;DHT22;27206;47.032;15.484;2023-04-25T12:23:05;14.50;99.90
41469;DHT22;27206;47.032;15.484;2023-04-25T12:25:42;14.50;99.90
41469;DHT22;27206;47.032;15.484;2023-04-25T12:28:20;14.70;99.90
41469;DHT22;27206;47.032;15.484;2023-04-25T12:31:12;14.90;99.90
41469;DHT22;27206;47.032;15.484;2023-04-25T12:33:40;15.20;99.90
41469;DHT22;27206;47.032;15.484;2023-04-25T12:36:08;15.80;99.90
41469;DHT22;27206;47.032;15.484;2023-04-25T12:38:39;16.30;99.90
41469;DHT22;27206;47.032;15.484;2023-04-25T12:41:06;16.30;99.90
41469;DHT22;27206;47.032;15.484;2023-04-25T12:43:32;16.10;99.90
41469;DHT22;27206;47.032;15.484;2023-04-25T12:45:57;16.20;99.90
41469;DHT22;27206;47.032;15.484;2023-04-25T12:48:23;16.30;99.90
41469;DHT22;27206;47.032;15.484;2023-04-25T12:50:50;16.50;99.90
41469;DHT22;27206;47.032;15.484;2023-04-25T12:53:18;16.50;99.90
41469;DHT22;27206;47.032;15.484;2023-04-25T12:55:44;16.60;99.90
41469;DHT22;27206;47.032;15.484;2023-04-25T12:58:15;16.50;99.90
41469;DHT22;27206;47.032;15.484;2023-04-25T13:00:41;16.20;99.90
41469;DHT22;27206;47.032;15.484;2023-04-25T13:03:08;16.00;99.90
41469;DHT22;27206;47.032;15.484;2023-04-25T13:05:34;16.00;99.90
41469;DHT22;27206;47.032;15.484;2023-04-25T13:08:00;15.90;99.90
41469;DHT22;27206;47.032;15.484;2023-04-25T13:10:25;16.10;99.90
41469;DHT22;27206;47.032;15.484;2023-04-25T13:12:51;16.50;99.90
41469;DHT22;27206;47.032;15.484;2023-04-25T13:15:17;16.50;99.90
41469;DHT22;27206;47.032;15.484;2023-04-25T13:17:42;17.10;99.90
41469;DHT22;27206;47.032;15.484;2023-04-25T13:20:09;17.20;99.90
41469;DHT22;27206;47.032;15.484;2023-04-25T13:22:36;17.30;99.90
41469;DHT22;27206;47.032;15.484;2023-04-25T13:25:04;17.80;99.90
41469;DHT22;27206;47.032;15.484;2023-04-25T13:27:30;18.00;99.90
41469;DHT22;27206;47.032;15.484;2023-04-25T13:29:58;18.10;99.90
41469;DHT22;27206;47.032;15.484;2023-04-25T13:32:24;18.50;99.90
41469;DHT22;27206;47.032;15.484;2023-04-25T13:34:51;18.50;99.90
41469;DHT22;27206;47.032;15.484;2023-04-25T13:37:18;18.70;99.90
41469;DHT22;27206;47.032;15.484;2023-04-25T13:39:44;19.00;99.90
41469;DHT22;27206;47.032;15.484;2023-04-25T13:42:09;19.30;99.90
41469;DHT22;27206;47.032;15.484;2023-04-25T13:44:36;19.20;99.90
41469;DHT22;27206;47.032;15.484;2023-04-25T13:47:02;19.20;99.90
41469;DHT22;27206;47.032;15.484;2023-04-25T13:49:28;18.80;99.90
41469;DHT22;27206;47.032;15.484;2023-04-25T13:51:59;18.80;99.90
41469;DHT22;27206;47.032;15.484;2023-04-25T13:54:25;18.50;99.90
41469;DHT22;27206;47.032;15.484;2023-04-25T13:56:51;18.60;99.90
41469;DHT22;27206;47.032;15.484;2023-04-25T13:59:17;18.70;99.90
41469;DHT22;27206;47.032;15.484;2023-04-25T14:01:44;18.50;99.90
41469;DHT22;27206;47.032;15.484;2023-04-25T14:04:10;18.50;99.90
41469;DHT22;27206;47.032;15.484;2023-04-25T14:06:35;18.40;99.90
41469;DHT22;27206;47.032;15.484;2023-04-25T14:09:02;18.30;99.90
41469;DHT22;27206;47.032;15.484;2023-04-25T14:11:30;17.70;99.90
41469;DHT22;27206;47.032;15.484;2023-04-25T14:13:55;17.90;99.90
41469;DHT22;27206;47.032;15.484;2023-04-25T14:16:21;17.70;99.90
41469;DHT22;27206;47.032;15.484;2023-04-25T14:18:48;17.50;99.90
41469;DHT22;27206;47.032;15.484;2023-04-25T14:21:13;17.50;99.90
41469;DHT22;27206;47.032;15.484;2023-04-25T14:23:39;17.60;99.90
41469;DHT22;27206;47.032;15.484;2023-04-25T14:26:05;17.40;99.90
41469;DHT22;27206;47.032;15.484;2023-04-25T14:28:31;17.20;99.90
41469;DHT22;27206;47.032;15.484;2023-04-25T14:30:57;17.20;99.90
41469;DHT22;27206;47.032;15.484;2023-04-25T14:33:22;17.20;99.90
41469;DHT22;27206;47.032;15.484;2023-04-25T14:35:49;17.00;99.90
41469;DHT22;27206;47.032;15.484;2023-04-25T14:38:14;16.90;99.90
41469;DHT22;27206;47.032;15.484;2023-04-25T14:40:40;16.90;99.90
41469;DHT22;27206;47.032;15.484;2023-04-25T14:43:05;17.00;99.90
41469;DHT22;27206;47.032;15.484;2023-04-25T14:45:31;16.70;99.90
41469;DHT22;27206;47.032;15.484;2023-04-25T14:47:57;16.70;99.90
41469;DHT22;27206;47.032;15.484;2023-04-25T14:50:22;16.80;99.90
41469;DHT22;27206;47.032;15.484;2023-04-25T14:52:48;16.90;99.90
41469;DHT22;27206;47.032;15.484;2023-04-25T14:55:14;16.80;99.90
41469;DHT22;27206;47.032;15.484;2023-04-25T14:57:40;16.30;99.90
41469;DHT22;27206;47.032;15.484;2023-04-25T15:00:06;16.20;99.90
41469;DHT22;27206;47.032;15.484;2023-04-25T15:02:35;16.10;99.90
41469;DHT22;27206;47.032;15.484;2023-04-25T15:05:00;16.10;99.90
41469;DHT22;27206;47.032;15.484;2023-04-25T15:07:26;15.70;99.90
41469;DHT22;27206;47.032;15.484;2023-04-25T15:09:52;15.40;99.90
41469;DHT22;27206;47.032;15.484;2023-04-25T15:12:18;15.60;99.90
41469;DHT22;27206;47.032;15.484;2023-04-25T15:14:44;15.90;99.90
41469;DHT22;27206;47.032;15.484;2023-04-25T15:17:10;16.00;99.90
41469;DHT22;27206;47.032;15.484;2023-04-25T15:19:38;16.00;99.90
41469;DHT22;27206;47.032;15.484;2023-04-25T15:22:05;15.90;99.90
41469;DHT22;27206;47.032;15.484;2023-04-25T15:24:32;16.00;99.90
41469;DHT22;27206;47.032;15.484;2023-04-25T15:26:57;15.80;99.90
41469;DHT22;27206;47.032;15.484;2023-04-25T15:29:23;15.80;99.90
41469;DHT22;27206;47.032;15.484;2023-04-25T15:31:50;15.90;99.90
41469;DHT22;27206;47.032;15.484;2023-04-25T15:34:15;16.30;99.90
41469;DHT22;27206;47.032;15.484;2023-04-25T15:36:41;16.70;99.90
41469;DHT22;27206;47.032;15.484;2023-04-25T15:39:07;17.40;99.90